createdAt,value
2018-12-08T00:01:07.980Z,6.17
2018-12-08T00:06:12.800Z,5.83
2018-12-08T00:11:17.912Z,5.13
2018-12-08T00:16:22.622Z,8.07
2018-12-08T00:21:27.388Z,7.37
2018-12-08T00:26:31.946Z,5.70
2018-12-08T00:31:44.316Z,7.63
2018-12-08T00:36:48.998Z,6.83
2018-12-08T00:41:53.852Z,6.92
2018-12-08T00:46:58.505Z,8.03
2018-12-08T00:52:03.242Z,8.40
2018-12-08T00:57:07.947Z,7.27
2018-12-08T01:02:12.664Z,6.47
2018-12-08T01:07:17.322Z,8.13
2018-12-08T01:12:22.158Z,6.63
2018-12-08T01:17:26.793Z,7.13
2018-12-08T01:22:31.230Z,8.30
2018-12-08T01:27:35.837Z,6.77
2018-12-08T01:32:40.455Z,7.03
2018-12-08T01:37:45.136Z,7.08
2018-12-08T01:42:53.674Z,4.83
2018-12-08T01:47:58.389Z,8.00
2018-12-08T01:53:03.071Z,6.37
2018-12-08T01:58:07.749Z,6.75
2018-12-08T02:03:12.303Z,7.33
2018-12-08T02:08:17.024Z,5.70
2018-12-08T02:13:21.760Z,6.73
2018-12-08T02:18:26.353Z,6.07
2018-12-08T02:23:30.962Z,7.40
2018-12-08T02:28:35.688Z,7.33
2018-12-08T02:33:40.310Z,7.33
2018-12-08T02:38:45.053Z,7.37
2018-12-08T02:43:49.724Z,7.20
2018-12-08T02:48:54.399Z,7.97
2018-12-08T02:53:59.228Z,5.93
2018-12-08T02:59:03.997Z,8.43
2018-12-08T03:04:08.838Z,6.10
2018-12-08T03:09:13.331Z,5.83
2018-12-08T03:14:18.005Z,6.43
2018-12-08T03:19:22.620Z,5.83
2018-12-08T03:24:27.337Z,4.97
2018-12-08T03:29:32.003Z,8.87
2018-12-08T03:34:36.688Z,6.93
2018-12-08T03:39:41.373Z,6.97
2018-12-08T03:44:46.224Z,7.58
2018-12-08T03:49:51.123Z,5.90
2018-12-08T03:54:55.853Z,6.50
2018-12-08T04:00:00.534Z,6.47
2018-12-08T04:05:16.857Z,7.13
2018-12-08T04:10:21.521Z,6.57
2018-12-08T04:15:31.096Z,7.23
2018-12-08T04:20:39.060Z,5.13
2018-12-08T04:25:48.719Z,6.20
2018-12-08T04:30:53.382Z,6.47
2018-12-08T04:35:58.041Z,6.07
2018-12-08T04:41:02.803Z,5.63
2018-12-08T04:46:07.545Z,6.03
2018-12-08T04:51:12.533Z,6.23
2018-12-08T04:56:17.403Z,6.90
2018-12-08T05:01:22.872Z,6.57
2018-12-08T05:06:28.963Z,6.93
2018-12-08T05:11:34.220Z,6.67
2018-12-08T05:16:39.224Z,6.97
2018-12-08T05:21:44.326Z,6.20
2018-12-08T05:26:49.330Z,7.50
2018-12-08T05:31:54.940Z,7.87
2018-12-08T05:37:00.681Z,6.83
2018-12-08T05:42:06.541Z,6.50
2018-12-08T05:52:39.747Z,6.92
2018-12-08T05:57:44.506Z,6.97
2018-12-08T06:02:49.334Z,6.50
2018-12-08T06:07:53.877Z,7.83
2018-12-08T06:12:58.612Z,6.63
2018-12-08T06:18:03.277Z,6.83
2018-12-08T06:23:08.187Z,6.03
2018-12-08T06:28:21.474Z,8.33
2018-12-08T06:33:26.338Z,8.23
2018-12-08T06:38:31.213Z,6.87
2018-12-08T06:43:35.779Z,8.17
2018-12-08T06:48:40.370Z,7.33
2018-12-08T06:53:45.083Z,5.08
2018-12-08T06:58:49.830Z,5.57
2018-12-08T07:03:54.637Z,6.87
2018-12-08T07:08:59.892Z,5.90
2018-12-08T07:14:05.116Z,5.80
2018-12-08T07:19:10.213Z,5.00
2018-12-08T07:24:15.211Z,5.70
2018-12-08T07:29:19.942Z,6.27
2018-12-08T07:34:25.825Z,5.57
2018-12-08T07:39:31.086Z,5.20
2018-12-08T07:44:36.747Z,6.37
2018-12-08T07:49:41.511Z,4.57
2018-12-08T07:54:46.442Z,5.35
2018-12-08T07:59:51.500Z,4.58
2018-12-08T08:05:08.884Z,4.53
2018-12-08T08:10:14.690Z,3.80
2018-12-08T08:15:20.071Z,3.30
2018-12-08T08:20:25.054Z,3.87
2018-12-08T08:25:30.445Z,4.27
2018-12-08T08:30:35.256Z,4.43
2018-12-08T08:35:40.145Z,3.50
2018-12-08T08:40:44.886Z,2.90
2018-12-08T08:45:49.633Z,3.95
2018-12-08T08:53:50.123Z,2.43
2018-12-08T08:58:54.819Z,2.20
2018-12-08T09:03:59.095Z,1.63
2018-12-08T09:09:04.428Z,2.73
2018-12-08T09:14:13.209Z,2.63
2018-12-08T09:19:14.126Z,3.77
2018-12-08T09:24:17.951Z,3.23
2018-12-08T09:29:21.731Z,3.13
2018-12-08T09:34:25.671Z,4.53
2018-12-08T09:39:29.326Z,3.73
2018-12-08T09:44:33.073Z,3.10
2018-12-08T09:49:36.952Z,3.83
2018-12-08T09:54:40.574Z,2.87
2018-12-08T09:59:44.161Z,3.87
2018-12-08T10:04:47.714Z,3.57
2018-12-08T10:09:51.413Z,3.27
2018-12-08T10:14:55.111Z,2.57
2018-12-08T10:19:58.729Z,4.63
2018-12-08T10:25:02.366Z,1.77
2018-12-08T10:30:07.589Z,2.90
2018-12-08T10:35:12.347Z,4.07
2018-12-08T10:40:16.095Z,3.53
2018-12-08T10:45:19.785Z,3.10
2018-12-08T10:50:23.425Z,5.30
2018-12-08T10:55:27.090Z,4.23
2018-12-08T11:00:35.200Z,5.97
2018-12-08T11:05:38.770Z,6.27
2018-12-08T11:10:42.379Z,5.47
2018-12-08T11:15:46.124Z,7.20
2018-12-08T11:20:49.924Z,7.10
2018-12-08T11:25:53.551Z,7.37
2018-12-08T11:30:57.155Z,5.63
2018-12-08T11:36:00.848Z,6.67
2018-12-08T11:41:04.619Z,6.20
2018-12-08T11:46:08.413Z,6.80
2018-12-08T11:51:12.312Z,6.80
2018-12-08T11:56:16.179Z,5.70
2018-12-08T12:01:19.948Z,5.20
2018-12-08T12:06:23.761Z,7.67
2018-12-08T12:11:27.444Z,6.43
2018-12-08T12:16:31.066Z,5.90
2018-12-08T12:21:34.849Z,5.00
2018-12-08T12:26:38.750Z,4.30
2018-12-08T12:31:42.395Z,4.57
2018-12-08T12:36:46.259Z,5.27
2018-12-08T12:41:49.985Z,6.20
2018-12-08T12:46:53.568Z,6.93
2018-12-08T12:51:57.168Z,6.77
2018-12-08T12:57:00.818Z,7.50
2018-12-08T13:02:04.545Z,7.90
2018-12-08T13:07:08.412Z,7.13
2018-12-08T13:12:12.468Z,7.70
2018-12-08T13:17:16.263Z,8.23
2018-12-08T13:22:20.084Z,8.87
2018-12-08T13:27:24.933Z,7.43
2018-12-08T13:32:28.674Z,6.93
2018-12-08T13:37:32.649Z,8.23
2018-12-08T13:42:36.486Z,7.53
2018-12-08T13:47:40.289Z,7.77
2018-12-08T13:52:44.247Z,8.07
2018-12-08T13:57:48.007Z,8.83
2018-12-08T14:02:51.809Z,8.70
2018-12-08T14:07:55.606Z,10.03
2018-12-08T14:12:59.528Z,8.33
2018-12-08T14:18:03.347Z,10.47
2018-12-08T14:23:07.193Z,8.73
2018-12-08T14:28:11.347Z,9.13
2018-12-08T14:33:15.460Z,8.57
2018-12-08T14:38:19.447Z,8.37
2018-12-08T14:43:23.019Z,9.63
2018-12-08T14:48:27.397Z,9.07
2018-12-08T14:53:31.319Z,9.30
2018-12-08T14:58:35.015Z,8.30
2018-12-08T15:03:54.214Z,10.53
2018-12-08T15:08:58.101Z,11.60
2018-12-08T15:14:01.838Z,10.17
2018-12-08T15:19:05.655Z,8.93
2018-12-08T15:24:09.380Z,11.73
2018-12-08T15:29:13.340Z,8.93
2018-12-08T15:34:16.935Z,10.63
2018-12-08T15:39:20.665Z,10.43
2018-12-08T15:44:24.247Z,9.93
2018-12-08T15:49:29.750Z,10.17
2018-12-08T15:54:34.917Z,11.60
2018-12-08T15:59:39.687Z,10.60
2018-12-08T16:04:44.257Z,10.07
2018-12-08T16:09:48.573Z,11.07
2018-12-08T16:14:53.532Z,10.53
2018-12-08T16:19:57.916Z,12.70
2018-12-08T16:25:02.456Z,10.83
2018-12-08T16:30:08.800Z,9.47
2018-12-08T16:35:12.694Z,4.53
2018-12-08T16:51:26.880Z,10.50
2018-12-08T16:56:30.769Z,10.57
2018-12-08T17:12:46.438Z,8.77
2018-12-08T17:17:50.121Z,10.00
2018-12-08T17:22:53.860Z,9.10
2018-12-08T17:27:57.581Z,7.10
2018-12-08T17:33:01.307Z,8.97
2018-12-08T17:38:05.054Z,10.73
2018-12-08T17:43:08.755Z,9.57
2018-12-08T17:59:29.446Z,8.93
2018-12-08T18:04:33.485Z,10.77
2018-12-08T18:09:38.091Z,11.17
2018-12-08T18:14:42.587Z,5.80
2018-12-08T18:19:46.626Z,8.03
2018-12-08T18:24:51.126Z,6.93
2018-12-08T18:29:55.058Z,7.27
2018-12-08T18:34:59.187Z,7.47
2018-12-08T18:40:04.006Z,7.10
2018-12-08T18:45:08.639Z,8.97
2018-12-08T18:50:13.302Z,7.47
2018-12-08T18:55:19.046Z,8.70
2018-12-08T19:00:24.718Z,8.43
2018-12-08T19:05:31.684Z,9.17
2018-12-08T19:22:04.766Z,8.47
2018-12-08T19:27:09.826Z,8.17
2018-12-08T19:32:15.566Z,7.63
2018-12-08T19:37:20.706Z,11.63
2018-12-08T19:42:25.726Z,9.37
2018-12-08T19:47:30.683Z,7.87
2018-12-08T19:52:36.504Z,6.60
2018-12-08T19:57:42.663Z,7.83
2018-12-08T20:02:47.346Z,7.17
2018-12-08T20:07:52.056Z,5.00
2018-12-08T20:12:57.799Z,5.33
2018-12-08T20:18:02.442Z,8.13
2018-12-08T20:23:07.117Z,8.10
2018-12-08T20:28:12.015Z,8.00
2018-12-08T20:33:16.970Z,8.00
2018-12-08T20:38:21.832Z,8.03
2018-12-08T20:43:26.660Z,9.47
2018-12-08T20:48:31.534Z,7.13
2018-12-08T20:53:37.235Z,8.50
2018-12-08T21:04:16.484Z,11.00
2018-12-08T21:09:21.282Z,7.13
2018-12-08T21:14:26.419Z,6.23
2018-12-08T21:19:31.434Z,7.10
2018-12-08T21:24:37.176Z,6.27
2018-12-08T21:29:42.769Z,7.77
2018-12-08T21:34:47.527Z,8.07
2018-12-08T21:39:52.352Z,6.42
2018-12-08T21:44:57.075Z,6.80
2018-12-08T21:50:02.064Z,7.63
2018-12-08T21:55:06.665Z,6.27
2018-12-08T22:00:11.430Z,6.90
2018-12-08T22:05:16.436Z,6.33
2018-12-08T22:10:21.209Z,7.03
2018-12-08T22:15:25.866Z,8.20
2018-12-08T22:20:30.664Z,8.90
2018-12-08T22:25:35.244Z,8.13
2018-12-08T22:30:39.806Z,8.83
2018-12-08T22:35:44.546Z,9.17
2018-12-08T22:40:49.463Z,9.70
2018-12-08T22:45:54.126Z,9.50
2018-12-08T22:50:58.739Z,10.65
2018-12-08T22:56:03.318Z,9.77
2018-12-08T23:01:07.937Z,9.67
2018-12-08T23:06:13.019Z,9.27
2018-12-08T23:11:19.025Z,8.77
2018-12-08T23:16:23.634Z,8.97
2018-12-08T23:21:28.415Z,10.07
2018-12-08T23:26:32.943Z,9.27
2018-12-08T23:31:37.505Z,9.85
2018-12-08T23:36:42.501Z,10.50
2018-12-08T23:41:47.221Z,7.53
2018-12-08T23:46:52.024Z,8.20
2018-12-08T23:51:56.843Z,5.87
2018-12-08T23:57:01.603Z,6.37
